Latest Weather Observations for Moranbah Airport

IDQ60801

Issued at 2:35 pm EST Wednesday 22 October 2014 (issued every 30 minutes, with the page automatically refreshed every 10 minutes)

About weather observations | Map of weather stations | Latest weather observations for QLD | Other Formats
Station Details ID: 034035 Name: MORANBAH AIRPORT Lat: -22.06 Lon: 148.08 Height: 232.2 m
Data from the previous 72 hours. | See also: Recent months at Moranbah Airport
Date/Time
EST
Temp
°C
App
Temp
°C
Dew
Point
Rel
Hum
%
Delta-T
°C
Wind Press
QNH
hPa
Press
MSL
hPa
Rain
since 9 am
mm
Dir
 
Spd
km/h
Gust
km/h
Spd
kts
Gust
kts
22/02:30pm 30.4 27.4 11.9 32 10.9 SE 19 28 10 15 1018.3 1017.1 0.0
22/02:00pm 29.9 25.4 11.4 32 10.8 ESE 26 39 14 21 1018.8 1017.6 0.0
22/01:30pm 29.4 27.0 11.5 33 10.4 ESE 15 26 8 14 1019.3 1018.1 0.0
22/01:00pm 29.3 25.5 12.3 35 10.0 SE 24 32 13 17 1019.7 1018.6 0.0
22/12:30pm 29.8 26.5 12.7 35 10.2 ESE 22 35 12 19 1020.2 1019.1 0.0
22/12:00pm 27.8 23.8 11.8 37 9.3 SE 24 30 13 16 1020.8 1019.7 0.0
22/11:30am 27.7 23.5 12.5 39 8.9 E 26 37 14 20 1021.6 1020.4 0.0
22/11:00am 27.3 23.3 12.9 41 8.5 E 26 37 14 20 1021.9 1020.7 0.0
22/10:30am 25.8 21.7 12.6 44 7.7 E 26 33 14 18 1022.5 1021.3 0.0
22/10:00am 24.8 20.0 13.0 47 6.9 E 30 41 16 22 1022.8 1021.6 0.0
22/09:30am 25.1 20.0 13.6 49 6.8 E 33 44 18 24 1023.1 1021.9 0.0
22/09:00am 24.8 20.8 14.0 51 6.4 E 28 39 15 21 1023.4 1022.2 0.0
22/08:30am 22.5 19.0 13.3 56 5.4 ENE 24 35 13 19 1023.6 1022.5 0.0
22/08:00am 21.8 18.4 13.7 60 4.7 E 24 32 13 17 1023.4 1022.2 0.0
22/07:30am 20.7 17.7 13.6 64 4.1 ESE 22 30 12 16 1023.2 1022.0 0.0
22/07:00am 19.4 16.6 13.3 68 3.5 SE 20 26 11 14 1022.9 1021.7 0.0
22/06:30am 17.4 15.8 12.7 74 2.6 SE 13 17 7 9 1022.8 1021.6 0.0
22/06:00am 14.9 13.6 12.4 85 1.4 SE 11 13 6 7 1022.6 1021.4 0.0
22/05:30am 14.1 12.6 11.8 86 1.2 SE 11 13 6 7 1022.2 1021.0 0.0
22/05:00am 14.7 13.0 12.4 86 1.3 SSE 13 15 7 8 1022.1 1020.9 0.0
22/04:30am 14.9 13.2 12.4 85 1.4 SSE 13 15 7 8 1021.8 1020.6 0.0
22/04:00am 14.6 12.9 12.6 88 1.1 SSE 13 15 7 8 1021.8 1020.6 0.0
22/03:30am 14.1 12.6 12.0 87 1.1 SE 11 13 6 7 1021.7 1020.5 0.0
22/03:00am 14.8 13.1 12.5 86 1.3 SE 13 15 7 8 1022.0 1020.8 0.0
22/02:30am 15.4 14.2 12.7 84 1.5 ESE 11 13 6 7 1022.1 1020.9 0.0
22/02:00am 16.0 14.5 13.1 83 1.6 ESE 13 17 7 9 1022.1 1020.9 0.0
22/01:30am 16.5 14.3 13.2 81 1.9 SE 17 20 9 11 1022.3 1021.1 0.0
22/01:00am 16.3 14.1 13.4 83 1.6 SE 17 20 9 11 1022.7 1021.5 0.0
22/12:30am 15.9 14.3 12.8 82 1.7 SSE 13 15 7 8 1023.0 1021.8 0.0
22/12:00am 16.0 14.3 12.6 80 1.9 SE 13 15 7 8 1023.3 1022.1 0.0
 
Date/Time
EST
Temp
°C
App
Temp
°C
Dew
Point
Rel
Hum
%
Delta-T
°C
Wind Press
QNH
hPa
Press
MSL
hPa
Rain
since 9 am
mm
Dir
 
Spd
km/h
Gust
km/h
Spd
kts
Gust
kts
21/11:30pm 16.1 14.5 11.7 75 2.4 SE 11 13 6 7 1023.6 1022.5 0.0
21/11:00pm 17.7 15.7 12.6 72 2.9 ESE 15 17 8 9 1023.7 1022.6 0.0
21/10:30pm 17.1 15.5 11.4 69 3.1 E 11 11 6 6 1023.6 1022.5 0.0
21/10:00pm 18.0 15.9 11.3 65 3.7 E 13 13 7 7 1023.6 1022.5 0.0
21/09:30pm 19.4 17.5 11.9 62 4.2 E 13 15 7 8 1023.3 1022.1 0.0
21/09:00pm 20.3 18.6 12.3 60 4.5 E 13 17 7 9 1023.2 1022.0 0.0
21/08:30pm 21.3 18.4 12.2 56 5.2 ENE 19 26 10 14 1023.0 1021.8 0.0
21/08:00pm 22.3 18.8 12.3 53 5.7 ENE 22 30 12 16 1022.6 1021.4 0.0
21/07:30pm 23.1 19.2 12.1 50 6.3 ENE 24 33 13 18 1022.3 1021.1 0.0
21/07:00pm 23.8 19.8 11.8 47 6.8 ENE 24 33 13 18 1021.8 1020.6 0.0
21/06:30pm 24.8 20.2 11.0 42 7.8 ENE 26 33 14 18 1021.0 1019.9 0.0
21/06:00pm 26.0 22.4 10.6 38 8.7 E 20 28 11 15 1020.5 1019.4 0.0
21/05:30pm 27.2 22.8 10.4 35 9.5 E 24 32 13 17 1020.1 1019.0 0.0
21/05:00pm 28.0 23.2 10.2 33 10.1 E 26 35 14 19 1019.6 1018.5 0.0
21/04:30pm 28.9 23.5 9.6 30 10.9 E 28 37 15 20 1019.3 1018.1 0.0
21/04:00pm 28.9 24.4 10.1 31 10.7 ESE 24 32 13 17 1019.3 1018.1 0.0
21/03:30pm 29.3 23.9 9.4 29 11.2 SE 28 35 15 19 1019.3 1018.1 0.0
21/03:00pm 29.6 24.3 9.7 29 11.3 E 28 46 15 25 1019.4 1018.2 0.0
21/02:36pm 29.3 23.7 8.9 28 11.4 E 28 52 15 28 1019.6 1018.5 0.0
21/02:30pm 29.6 24.5 9.2 28 11.5 E 26 37 14 20 1019.7 1018.6 0.0
21/02:25pm 29.2 23.7 9.3 29 11.2 ESE 28 46 15 25 1019.8 1018.7 0.0
21/02:00pm 28.9 23.5 9.6 30 10.9 SE 28 32 15 17 1020.1 1019.0 0.0
21/01:57pm 28.8 23.4 9.5 30 10.9 E 28 46 15 25 1020.2 1019.1 0.0
21/01:30pm 29.1 23.0 10.3 31 10.7 E 33 44 18 24 1020.5 1019.4 0.0
21/01:01pm 29.2 23.6 10.3 31 10.8 ESE 30 50 16 27 1020.8 1019.7 0.0
21/01:00pm 29.4 24.1 10.0 30 11.0 ESE 28 44 15 24 1020.8 1019.7 0.0
21/12:59pm 28.5 22.6 9.2 30 10.8 ESE 30 48 16 26 1020.9 1019.8 0.0
21/12:50pm 29.2 21.8 9.8 30 11.0 ESE 39 48 21 26 1021.1 1020.0 0.0
21/12:40pm 28.9 23.1 9.6 30 10.9 E 30 48 16 26 1021.4 1020.2 0.0
21/12:30pm 28.9 22.6 9.1 29 11.1 E 32 44 17 24 1021.7 1020.5 0.0
21/12:05pm 28.7 23.5 10.4 32 10.5 E 28 46 15 25 1022.1 1020.9 0.0
21/12:00pm 28.4 22.4 8.7 29 10.9 E 30 46 16 25 1022.2 1021.0 0.0
21/11:54am 28.8 23.5 10.0 31 10.7 ESE 28 46 15 25 1022.0 1020.8 0.0
21/11:30am 27.3 21.1 9.2 32 10.1 E 32 41 17 22 1022.7 1021.5 0.0
21/11:00am 27.0 22.2 11.5 38 8.9 ESE 28 43 15 23 1023.1 1021.9 0.0
21/10:30am 24.5 20.0 11.5 44 7.4 ENE 26 32 14 17 1023.5 1022.4 0.0
21/10:00am 24.3 19.4 12.6 48 6.8 E 30 43 16 23 1023.9 1022.8 0.0
21/09:30am 23.1 18.3 13.0 53 5.9 E 30 43 16 23 1024.1 1023.0 0.0
21/09:00am 22.8 18.0 13.0 54 5.7 E 30 39 16 21 1024.1 1023.0 0.0
21/08:30am 21.9 16.9 13.3 58 5.0 ESE 32 43 17 23 1024.0 1022.9 0.0
21/08:00am 21.1 16.1 13.3 61 4.5 ESE 32 41 17 22 1023.8 1022.7 0.0
21/07:30am 20.4 16.5 13.4 64 4.0 ESE 26 35 14 19 1023.6 1022.5 0.0
21/07:00am 18.4 15.2 13.0 71 3.1 ESE 22 30 12 16 1023.3 1022.1 0.0
21/06:30am 17.8 14.5 12.9 73 2.8 SE 22 30 12 16 1022.9 1021.7 0.0
21/06:00am 16.7 13.5 13.0 79 2.1 SE 22 32 12 17 1022.4 1021.2 0.0
21/05:30am 16.2 13.0 13.1 82 1.7 SE 22 30 12 16 1022.1 1020.9 0.0
21/05:00am 16.2 13.6 13.7 85 1.4 SE 20 24 11 13 1021.9 1020.7 0.0
21/04:30am 15.6 14.0 13.8 89 1.0 SE 15 20 8 11 1021.6 1020.4 0.0
21/04:00am 14.6 12.6 12.8 89 1.0 SE 15 15 8 8 1021.2 1020.1 0.0
21/03:30am 15.3 13.4 13.1 87 1.2 SSE 15 15 8 8 1021.2 1020.1 0.0
21/03:00am 15.5 14.1 13.3 87 1.2 SSE 13 17 7 9 1021.2 1020.1 0.0
21/02:30am 15.6 13.7 13.1 85 1.4 SSE 15 17 8 9 1021.2 1020.1 0.0
21/02:00am 16.0 13.9 13.7 86 1.3 SSE 17 19 9 10 1021.4 1020.2 0.0
21/01:30am 15.5 14.0 13.0 85 1.4 SSE 13 15 7 8 1021.7 1020.5 0.0
21/01:00am 15.6 13.7 13.1 85 1.4 SE 15 17 8 9 1021.9 1020.7 0.0
21/12:30am 16.4 15.3 13.1 81 1.9 ESE 11 15 6 8 1022.4 1021.2 0.0
21/12:00am 16.5 15.4 13.2 81 1.9 ESE 11 13 6 7 1022.7 1021.5 0.0
 
Date/Time
EST
Temp
°C
App
Temp
°C
Dew
Point
Rel
Hum
%
Delta-T
°C
Wind Press
QNH
hPa
Press
MSL
hPa
Rain
since 9 am
mm
Dir
 
Spd
km/h
Gust
km/h
Spd
kts
Gust
kts
20/11:30pm 16.2 16.7 11.6 74 2.5 CALM 0 0 0 0 1022.9 1021.7 0.0
20/11:00pm 16.9 17.4 11.6 71 2.9 CALM 0 0 0 0 1023.0 1021.8 0.0
20/10:30pm 18.4 17.5 12.6 69 3.3 ENE 9 13 5 7 1023.0 1021.8 0.0
20/10:00pm 19.3 18.5 12.8 66 3.7 ENE 9 15 5 8 1023.0 1021.8 0.0
20/09:30pm 20.4 18.0 12.6 61 4.4 ENE 17 24 9 13 1022.8 1021.6 0.0
20/09:00pm 21.1 18.2 12.3 57 5.0 ENE 19 26 10 14 1022.4 1021.2 0.0
20/08:30pm 22.2 18.2 11.9 52 5.8 ENE 24 30 13 16 1021.9 1020.7 0.0
20/08:00pm 23.3 19.0 10.7 45 7.0 ENE 24 33 13 18 1021.0 1019.9 0.0
20/07:30pm 24.1 19.3 10.4 42 7.7 ENE 26 35 14 19 1020.5 1019.4 0.0
20/07:00pm 24.3 20.2 7.9 35 8.8 ENE 19 24 10 13 1019.9 1018.8 0.0
20/06:30pm 24.3 21.1 5.1 29 9.8 E 11 13 6 7 1019.3 1018.1 0.0
20/06:00pm 26.8 23.2 5.1 25 11.2 E 13 20 7 11 1018.9 1017.7 0.0
20/05:30pm 28.0 22.7 5.0 23 11.9 E 22 30 12 16 1018.7 1017.5 0.0
20/05:00pm 29.0 22.5 4.5 21 12.7 E 28 37 15 20 1018.4 1017.2 0.0
20/04:30pm 29.5 23.3 4.2 20 13.1 E 26 35 14 19 1018.1 1016.9 0.0
20/04:00pm 29.5 24.1 6.2 23 12.4 ESE 24 37 13 20 1018.1 1016.9 0.0
20/03:30pm 30.2 25.7 6.1 22 12.9 E 19 30 10 16 1018.1 1016.9 0.0
20/03:11pm 29.7 23.3 5.1 21 12.9 ESE 28 46 15 25 1018.2 1017.0 0.0
20/03:00pm 30.3 24.2 4.9 20 13.3 E 26 35 14 19 1018.2 1017.0 0.0
20/02:38pm 30.3 23.8 4.9 20 13.4 ESE 28 52 15 28 1018.4 1017.2 0.0
20/02:30pm 30.2 25.4 5.5 21 13.1 SE 20 33 11 18 1018.6 1017.4 0.0
20/02:03pm 30.9 24.7 6.0 21 13.4 SE 28 46 15 25 1018.8 1017.6 0.0
20/02:00pm 30.0 24.0 5.3 21 13.0 SE 26 35 14 19 1018.9 1017.7 0.0
20/01:30pm 29.7 25.2 7.0 24 12.3 ESE 20 30 11 16 1019.4 1018.2 0.0
20/01:11pm 29.2 22.8 5.3 22 12.6 ESE 28 46 15 25 1019.7 1018.6 0.0
20/01:00pm 29.2 22.4 5.3 22 12.5 ESE 30 41 16 22 1019.9 1018.8 0.0
20/12:30pm 28.7 22.8 7.3 26 11.6 E 28 41 15 22 1020.7 1019.6 0.0
20/12:00pm 27.5 21.7 7.9 29 10.6 E 28 39 15 21 1021.7 1020.5 0.0
20/11:30am 27.6 21.8 8.0 29 10.7 E 28 43 15 23 1022.1 1020.9 0.0
20/11:00am 26.5 20.7 8.0 31 10.0 E 28 41 15 22 1022.5 1021.3 0.0
20/10:30am 25.3 19.4 9.2 36 8.9 E 30 41 16 22 1023.0 1021.8 0.0
20/10:02am 25.6 20.0 10.2 38 8.6 E 30 56 16 30 1023.1 1021.9 0.0
20/10:00am 24.6 19.3 9.7 39 8.2 E 28 41 15 22 1023.5 1022.4 0.0
20/09:30am 23.8 18.8 10.8 44 7.3 E 28 41 15 22 1023.8 1022.7 0.0
20/09:00am 22.8 17.7 11.8 50 6.2 E 30 37 16 20 1024.1 1023.0 0.0
20/08:30am 21.8 17.1 12.1 54 5.5 E 28 37 15 20 1024.2 1023.1 0.0
20/08:00am 21.3 17.0 12.2 56 5.2 ESE 26 35 14 19 1024.2 1023.1 0.0
20/07:30am 20.0 16.4 12.0 60 4.5 ESE 22 32 12 17 1024.1 1023.0 0.0
20/07:00am 19.4 15.6 12.4 64 3.9 ESE 24 32 13 17 1023.9 1022.8 0.0
20/06:30am 16.9 15.1 12.2 74 2.6 SE 13 17 7 9 1023.9 1022.8 0.0
20/06:00am 14.3 12.5 12.0 86 1.3 SE 13 15 7 8 1023.4 1022.2 0.0
20/05:30am 12.9 10.7 10.8 87 1.1 SE 13 13 7 7 1023.2 1022.0 0.0
20/05:00am 13.9 11.8 11.2 84 1.4 SSE 13 15 7 8 1023.1 1021.9 0.0
20/04:30am 13.6 11.5 11.1 85 1.3 SSE 13 15 7 8 1022.9 1021.7 0.0
20/04:00am 14.6 12.7 11.7 83 1.6 S 13 15 7 8 1022.8 1021.6 0.0
20/03:30am 14.7 13.2 12.0 84 1.5 S 11 15 6 8 1022.6 1021.4 0.0
20/03:00am 15.0 13.2 12.0 82 1.6 S 13 15 7 8 1022.5 1021.3 0.0
20/02:30am 14.8 12.6 12.1 84 1.5 SSE 15 17 8 9 1022.4 1021.2 0.0
20/02:00am 14.8 12.6 12.1 84 1.5 SSE 15 15 8 8 1022.5 1021.3 0.0
20/01:30am 15.1 13.4 12.4 84 1.5 SSE 13 15 7 8 1022.6 1021.4 0.0
20/01:00am 15.5 13.8 12.6 83 1.6 SSE 13 15 7 8 1022.7 1021.5 0.0
20/12:30am 15.5 13.8 12.6 83 1.6 SSE 13 15 7 8 1022.8 1021.6 0.0
20/12:00am 15.4 13.6 12.0 80 1.9 ESE 13 13 7 7 1023.1 1021.9 0.0
 
Date/Time
EST
Temp
°C
App
Temp
°C
Dew
Point
Rel
Hum
%
Delta-T
°C
Wind Press
QNH
hPa
Press
MSL
hPa
Rain
since 9 am
mm
Dir
 
Spd
km/h
Gust
km/h
Spd
kts
Gust
kts
19/11:30pm 16.8 15.4 12.3 75 2.5 ESE 11 15 6 8 1023.6 1022.5 0.0
19/11:00pm 16.7 15.6 11.8 73 2.7 SE 9 11 5 6 1024.0 1022.9 0.0
19/10:30pm 17.6 16.2 12.3 71 3.0 E 11 13 6 7 1024.1 1023.0 0.0
19/10:00pm 18.6 17.3 12.4 67 3.5 ENE 11 15 6 8 1023.9 1022.8 0.0
19/09:30pm 19.4 17.6 12.2 63 4.1 ENE 13 19 7 10 1023.9 1022.8 0.0
19/09:00pm 20.4 17.9 12.4 60 4.5 ENE 17 26 9 14 1023.6 1022.5 0.0
19/08:30pm 20.9 17.9 11.8 56 5.1 ENE 19 26 10 14 1023.0 1021.8 0.0
19/08:00pm 21.6 17.6 11.9 54 5.5 ENE 24 32 13 17 1022.4 1021.2 0.0
19/07:30pm 22.2 18.3 12.2 53 5.7 ENE 24 32 13 17 1022.1 1020.9 0.0
19/07:00pm 22.9 19.4 12.2 51 6.1 ENE 22 30 12 16 1021.6 1020.4 0.0
19/06:30pm 23.7 20.3 12.4 49 6.5 ENE 22 32 12 17 1021.1 1020.0 0.0
19/06:00pm 24.8 20.5 10.7 41 7.9 E 24 30 13 16 1020.6 1019.5 0.0
19/05:30pm 26.2 22.6 10.0 36 9.1 E 19 28 10 15 1020.3 1019.2 0.0
19/05:00pm 27.2 21.3 10.4 35 9.5 E 32 41 17 22 1020.0 1018.9 0.0
19/04:30pm 26.7 21.4 10.0 35 9.4 ESE 28 35 15 19 1019.9 1018.8 0.0
19/04:00pm 26.7 22.2 10.0 35 9.4 E 24 35 13 19 1019.9 1018.8 0.0
19/03:30pm 27.2 21.4 9.5 33 9.9 E 30 39 16 21 1019.8 1018.7 0.0
19/03:00pm 27.5 22.6 9.8 33 9.9 ESE 26 32 14 17 1019.9 1018.8 0.0

Other Formats:

Comma delimited format used in spreadsheet applications
http://www.bom.gov.au/fwo/IDQ60801/IDQ60801.94397.axf

JavaScript Object Notation format (JSON) in row-major order
http://www.bom.gov.au/fwo/IDQ60801/IDQ60801.94397.json